Time;durP1;ratioP1;P1;durP2;ratioP2;P2;SDS_P1;SDS_P2;PMS_P1;PMS_P2;Temp;Humidity;BMP_temperature;BMP_pressure;BME280_temperature;BME280_humidity;BME280_pressure;Samples;Min_cycle;Max_cycle;Signal;HPM_P1;HPM_P2
2021/12/18 00:01:18;;;;;;;0.40;0.30;;;8.40;99.90;;;;;;5056963;28;20671;-82
2021/12/18 00:03:45;;;;;;;0.40;0.40;;;8.40;99.90;;;;;;5056693;28;20241;-80
2021/12/18 00:06:12;;;;;;;0.40;0.40;;;8.40;99.90;;;;;;5055739;28;20211;-82
2021/12/18 00:08:40;;;;;;;0.50;0.40;;;8.40;99.90;;;;;;5056811;28;20210;-82
2021/12/18 00:11:08;;;;;;;0.40;0.30;;;8.40;99.90;;;;;;5057397;28;20198;-81
2021/12/18 00:13:35;;;;;;;0.40;0.40;;;8.40;99.90;;;;;;5059789;28;20202;-81
2021/12/18 00:16:02;;;;;;;0.40;0.30;;;8.30;99.90;;;;;;5060294;28;20694;-83
2021/12/18 00:18:30;;;;;;;0.40;0.40;;;8.30;99.90;;;;;;5059863;28;20277;-81
2021/12/18 00:20:57;;;;;;;0.40;0.35;;;8.20;99.90;;;;;;5060204;28;20195;-81
2021/12/18 00:23:24;;;;;;;0.40;0.40;;;8.20;99.90;;;;;;5060475;28;20209;-81
2021/12/18 00:25:51;;;;;;;0.40;0.30;;;8.20;99.90;;;;;;5060638;28;20202;-82
2021/12/18 00:28:19;;;;;;;0.40;0.40;;;8.30;99.90;;;;;;5060706;28;20210;-80
2021/12/18 00:30:46;;;;;;;0.40;0.30;;;8.30;99.90;;;;;;5060275;28;20209;-81
2021/12/18 00:33:13;;;;;;;0.40;0.35;;;8.30;99.90;;;;;;5059488;28;20706;-82
2021/12/18 00:35:40;;;;;;;0.40;0.35;;;8.30;99.90;;;;;;5060854;28;20219;-81
2021/12/18 00:38:09;;;;;;;0.40;0.30;;;8.30;99.90;;;;;;5060395;28;20255;-81
2021/12/18 00:40:45;;;;;;;0.40;0.40;;;8.30;99.90;;;;;;5060649;28;20203;-79
2021/12/18 00:43:23;;;;;;;14.02;4.43;;;8.30;99.90;;;;;;5060756;28;20182;-80
2021/12/18 00:45:52;;;;;;;0.40;0.40;;;8.30;99.90;;;;;;5060565;28;20216;-80
2021/12/18 00:48:19;;;;;;;0.40;0.30;;;8.40;99.90;;;;;;5060825;28;20222;-79
2021/12/18 00:50:46;;;;;;;0.50;0.50;;;8.40;99.90;;;;;;5060680;28;20194;-79
2021/12/18 00:53:13;;;;;;;0.40;0.30;;;8.30;99.90;;;;;;5060921;28;20190;-79
2021/12/18 00:55:40;;;;;;;0.73;0.73;;;8.30;99.90;;;;;;5060278;28;20225;-80
2021/12/18 00:58:08;;;;;;;0.40;0.30;;;8.30;99.90;;;;;;5060815;28;20197;-79
2021/12/18 01:00:35;;;;;;;0.40;0.40;;;8.20;99.90;;;;;;5059957;28;20193;-80
2021/12/18 01:03:04;;;;;;;0.40;0.30;;;8.20;99.90;;;;;;5060112;28;20221;-80
2021/12/18 01:05:33;;;;;;;0.40;0.38;;;8.20;99.90;;;;;;5060481;28;20242;-79
2021/12/18 01:08:01;;;;;;;0.40;0.35;;;8.20;99.90;;;;;;5059732;28;20587;-79
2021/12/18 01:10:42;;;;;;;0.40;0.40;;;8.20;99.90;;;;;;5059377;28;20195;-80
2021/12/18 01:13:13;;;;;;;0.40;0.30;;;8.20;99.90;;;;;;5059629;28;20530;-79
2021/12/18 01:15:45;;;;;;;0.40;0.40;;;8.20;99.90;;;;;;5059209;28;20222;-79
2021/12/18 01:23:42;;;;;;;0.40;0.30;;;8.20;99.90;;;;;;5059190;28;20236;-79
2021/12/18 01:26:09;;;;;;;0.50;0.30;;;8.20;99.90;;;;;;5058949;28;20821;-79
2021/12/18 01:28:36;;;;;;;0.40;0.40;;;8.20;99.90;;;;;;5059024;28;20717;-79
2021/12/18 01:31:04;;;;;;;0.50;0.32;;;8.20;99.90;;;;;;5059081;28;20689;-80
2021/12/18 01:33:32;;;;;;;1.55;0.77;;;8.20;99.90;;;;;;5059688;28;20212;-79
2021/12/18 01:36:01;;;;;;;0.40;0.30;;;8.20;99.90;;;;;;5059729;28;20232;-79
2021/12/18 01:38:29;;;;;;;0.40;0.30;;;8.20;99.90;;;;;;5068399;28;20187;-80
2021/12/18 01:40:57;;;;;;;0.40;0.40;;;8.10;99.90;;;;;;5073052;28;20194;-79
2021/12/18 01:46:33;;;;;;;0.82;0.82;;;8.10;99.90;;;;;;5071386;28;20620;-79
2021/12/18 01:52:02;;;;;;;0.50;0.40;;;8.00;99.90;;;;;;5058578;28;20201;-79
2021/12/18 01:54:29;;;;;;;0.50;0.43;;;8.00;99.90;;;;;;5058745;28;20304;-79
2021/12/18 01:56:57;;;;;;;1.20;1.20;;;8.00;99.90;;;;;;5065911;28;20386;-80
2021/12/18 01:59:35;;;;;;;0.40;0.30;;;8.00;99.90;;;;;;5075880;28;20212;-79
2021/12/18 02:02:02;;;;;;;1.10;1.05;;;8.00;99.90;;;;;;5076079;28;20216;-79
2021/12/18 02:04:30;;;;;;;0.40;0.30;;;8.00;99.90;;;;;;5076368;28;20205;-77
2021/12/18 02:06:59;;;;;;;0.40;0.30;;;8.00;99.90;;;;;;5075600;28;20269;-79
2021/12/18 02:09:33;;;;;;;0.40;0.40;;;8.00;99.90;;;;;;5065309;28;20217;-79
2021/12/18 02:12:00;;;;;;;0.47;0.47;;;8.00;99.90;;;;;;5058946;28;20180;-79
2021/12/18 02:19:32;;;;;;;0.40;0.30;;;8.00;99.90;;;;;;5058495;28;20221;-78
2021/12/18 02:20:22;;;;;;;0.40;0.40;;;7.90;99.90;;;;;;5057628;28;20263;-79
2021/12/18 02:22:49;;;;;;;3.10;1.30;;;7.90;99.90;;;;;;5059136;28;20197;-79
2021/12/18 02:25:16;;;;;;;0.40;0.30;;;7.90;99.90;;;;;;5058990;28;20221;-79
2021/12/18 02:27:43;;;;;;;0.40;0.30;;;7.90;99.90;;;;;;5058996;28;20615;-80
2021/12/18 02:30:11;;;;;;;0.40;0.30;;;7.90;99.90;;;;;;5058285;28;20288;-79
2021/12/18 02:32:38;;;;;;;0.40;0.40;;;7.90;99.90;;;;;;5058768;28;20197;-79
2021/12/18 02:35:05;;;;;;;0.40;0.30;;;7.90;99.90;;;;;;5057559;28;20315;-79
2021/12/18 02:37:39;;;;;;;2.50;0.98;;;7.90;99.90;;;;;;5057732;28;20380;-77
2021/12/18 02:42:53;;;;;;;0.40;0.30;;;7.90;99.90;;;;;;5058612;28;20197;-79
2021/12/18 02:45:21;;;;;;;0.40;0.30;;;7.80;99.90;;;;;;5059248;28;20248;-79
2021/12/18 02:47:48;;;;;;;0.40;0.40;;;7.90;99.90;;;;;;5057765;28;20198;-79
2021/12/18 02:50:15;;;;;;;0.40;0.30;;;7.90;99.90;;;;;;5057935;28;20198;-79
2021/12/18 02:52:43;;;;;;;0.40;0.38;;;7.90;99.90;;;;;;5057608;28;20195;-79
2021/12/18 02:55:10;;;;;;;0.40;0.32;;;7.90;99.90;;;;;;5058405;28;20721;-79
2021/12/18 02:57:37;;;;;;;0.40;0.30;;;7.90;99.90;;;;;;5057755;28;20209;-79
2021/12/18 03:00:06;;;;;;;0.40;0.40;;;7.80;99.90;;;;;;5057918;28;20202;-79
2021/12/18 03:02:38;;;;;;;0.40;0.30;;;7.80;99.90;;;;;;5057943;28;20560;-79
2021/12/18 03:05:08;;;;;;;0.40;0.30;;;7.90;99.90;;;;;;5057970;28;20213;-79
2021/12/18 03:07:35;;;;;;;0.40;0.30;;;7.90;99.90;;;;;;5058103;28;20249;-79
2021/12/18 03:24:09;;;;;;;0.40;0.30;;;8.00;99.90;;;;;;5057577;28;20695;-79
2021/12/18 03:26:37;;;;;;;0.40;0.30;;;8.00;99.90;;;;;;5057048;28;20198;-79
2021/12/18 03:29:04;;;;;;;0.40;0.30;;;8.10;99.90;;;;;;5057555;28;20221;-79
2021/12/18 03:31:33;;;;;;;0.40;0.32;;;8.10;99.90;;;;;;5057248;28;20205;-80
2021/12/18 03:34:00;;;;;;;0.40;0.30;;;8.10;99.90;;;;;;5057383;28;20279;-79
2021/12/18 03:36:27;;;;;;;0.40;0.30;;;8.10;99.90;;;;;;5057719;28;20193;-79
2021/12/18 03:38:53;;;;;;;0.40;0.30;;;8.10;99.90;;;;;;5057689;28;20221;-79
2021/12/18 03:41:20;;;;;;;0.40;0.40;;;8.00;99.90;;;;;;5057968;28;20197;-79
2021/12/18 03:43:48;;;;;;;0.40;0.30;;;8.00;99.90;;;;;;5056680;28;20253;-79
2021/12/18 03:46:15;;;;;;;0.40;0.30;;;8.00;99.90;;;;;;5061369;28;20563;-80
2021/12/18 03:48:42;;;;;;;0.40;0.30;;;7.90;99.90;;;;;;5061209;28;20217;-79
2021/12/18 03:51:09;;;;;;;0.40;0.38;;;7.90;99.90;;;;;;5062203;28;20206;-80
2021/12/18 03:53:36;;;;;;;0.40;0.30;;;8.00;99.90;;;;;;5061788;28;20583;-79
2021/12/18 03:56:02;;;;;;;0.40;0.40;;;8.10;99.90;;;;;;5061224;28;20406;-79
2021/12/18 03:58:29;;;;;;;0.40;0.30;;;8.10;99.90;;;;;;5062442;28;20193;-79
2021/12/18 04:00:57;;;;;;;0.40;0.30;;;8.00;99.90;;;;;;5061282;28;20197;-79
2021/12/18 04:03:24;;;;;;;0.40;0.40;;;8.00;99.90;;;;;;5062096;28;20193;-79
2021/12/18 04:05:51;;;;;;;0.40;0.30;;;8.00;99.90;;;;;;5060963;28;20224;-79
2021/12/18 04:08:17;;;;;;;0.40;0.40;;;8.00;99.90;;;;;;5061265;28;20208;-79
2021/12/18 04:10:45;;;;;;;0.40;0.35;;;8.00;99.90;;;;;;5060859;28;20194;-79
2021/12/18 04:13:11;;;;;;;0.40;0.30;;;8.00;99.90;;;;;;5060279;28;20200;-79
2021/12/18 04:15:39;;;;;;;0.40;0.30;;;8.10;99.90;;;;;;5061123;28;20222;-80
2021/12/18 04:18:08;;;;;;;0.40;0.30;;;8.10;99.90;;;;;;5061170;28;20690;-79
2021/12/18 04:20:35;;;;;;;0.40;0.30;;;8.10;99.90;;;;;;5060648;28;20700;-80
2021/12/18 04:23:02;;;;;;;0.40;0.30;;;8.20;99.90;;;;;;5060844;28;20197;-79
2021/12/18 04:25:29;;;;;;;0.40;0.40;;;8.20;99.90;;;;;;5061311;28;20222;-79
2021/12/18 04:27:55;;;;;;;0.40;0.40;;;8.20;99.90;;;;;;5060920;28;20202;-79
2021/12/18 04:30:22;;;;;;;0.40;0.30;;;8.20;99.90;;;;;;5060985;28;20224;-80
2021/12/18 04:32:49;;;;;;;0.40;0.30;;;8.20;99.90;;;;;;5060819;28;20201;-79
2021/12/18 04:35:18;;;;;;;0.40;0.30;;;8.20;99.90;;;;;;5059769;28;20221;-79
2021/12/18 04:37:44;;;;;;;0.40;0.30;;;8.20;99.90;;;;;;5060715;28;20224;-79
2021/12/18 04:40:12;;;;;;;0.40;0.30;;;8.20;99.90;;;;;;5060500;28;20363;-79
2021/12/18 04:42:38;;;;;;;0.65;0.65;;;8.20;99.90;;;;;;5060620;28;20208;-79
2021/12/18 04:45:06;;;;;;;0.40;0.30;;;8.20;99.90;;;;;;5059953;28;20225;-79
2021/12/18 04:47:33;;;;;;;0.40;0.30;;;8.30;99.90;;;;;;5060998;28;20198;-77
2021/12/18 04:50:00;;;;;;;0.40;0.30;;;8.30;99.90;;;;;;5059992;28;20209;-79
2021/12/18 04:52:28;;;;;;;0.40;0.40;;;8.30;99.90;;;;;;5060152;28;20194;-79
2021/12/18 04:54:55;;;;;;;0.40;0.30;;;8.30;99.90;;;;;;5060163;28;20225;-79
2021/12/18 04:57:21;;;;;;;0.40;0.30;;;8.30;99.90;;;;;;5059461;28;20209;-79
2021/12/18 04:59:48;;;;;;;0.40;0.30;;;8.20;99.90;;;;;;5059305;28;20201;-79
2021/12/18 05:02:20;;;;;;;0.40;0.40;;;8.20;99.90;;;;;;5059583;28;20201;-79
2021/12/18 05:04:47;;;;;;;0.40;0.40;;;8.20;99.90;;;;;;5059391;28;20591;-79
2021/12/18 05:07:14;;;;;;;0.50;0.40;;;8.10;99.90;;;;;;5059570;28;20205;-79
2021/12/18 05:09:42;;;;;;;0.40;0.30;;;8.10;99.90;;;;;;5059353;28;20778;-79
2021/12/18 05:12:10;;;;;;;0.40;0.30;;;8.10;99.90;;;;;;5060147;28;20212;-79
2021/12/18 05:14:37;;;;;;;0.40;0.30;;;8.10;99.90;;;;;;5059905;28;20584;-79
2021/12/18 05:17:04;;;;;;;0.40;0.40;;;8.10;99.90;;;;;;5059836;28;20201;-79
2021/12/18 05:19:31;;;;;;;0.40;0.30;;;8.10;99.90;;;;;;5059255;28;20198;-79
2021/12/18 05:21:57;;;;;;;0.40;0.30;;;8.10;99.90;;;;;;5059031;28;20220;-79
2021/12/18 05:24:24;;;;;;;1.48;1.48;;;8.20;99.90;;;;;;5060127;28;20222;-79
2021/12/18 05:26:52;;;;;;;0.40;0.30;;;8.20;99.90;;;;;;5060863;28;20201;-79
2021/12/18 05:29:19;;;;;;;0.40;0.30;;;8.20;99.90;;;;;;5060818;28;20214;-79
2021/12/18 05:31:46;;;;;;;0.40;0.32;;;8.20;99.90;;;;;;5061000;28;20201;-80
2021/12/18 05:34:20;;;;;;;0.40;0.30;;;8.10;99.90;;;;;;5060923;28;20703;-79
2021/12/18 05:37:13;;;;;;;0.40;0.30;;;8.10;99.90;;;;;;5061380;28;20251;-79
2021/12/18 05:39:38;;;;;;;0.40;0.30;;;8.10;99.90;;;;;;5059999;28;20284;-79
2021/12/18 05:42:07;;;;;;;0.40;0.30;;;8.20;99.90;;;;;;5060004;28;20206;-79
2021/12/18 05:44:34;;;;;;;0.40;0.30;;;8.10;99.90;;;;;;5065869;28;20635;-79
2021/12/18 05:47:01;;;;;;;0.40;0.32;;;8.10;99.90;;;;;;5059607;28;20204;-79
2021/12/18 05:49:27;;;;;;;0.40;0.30;;;8.10;99.90;;;;;;5059681;28;20214;-80
2021/12/18 05:51:54;;;;;;;0.40;0.30;;;8.10;99.90;;;;;;5059214;28;20206;-79
2021/12/18 05:54:21;;;;;;;0.40;0.30;;;8.20;99.90;;;;;;5059603;28;20217;-79
2021/12/18 05:56:48;;;;;;;0.40;0.30;;;8.20;99.90;;;;;;5059709;28;20206;-79
2021/12/18 05:59:16;;;;;;;0.40;0.30;;;8.20;99.90;;;;;;5058921;28;20198;-79
2021/12/18 06:01:43;;;;;;;0.40;0.30;;;8.20;99.90;;;;;;5059307;28;20674;-79
2021/12/18 06:04:09;;;;;;;0.40;0.40;;;8.10;99.90;;;;;;5059627;28;20217;-80
2021/12/18 06:06:36;;;;;;;0.40;0.30;;;8.20;99.90;;;;;;5058541;28;20228;-79
2021/12/18 06:09:03;;;;;;;0.40;0.30;;;8.20;99.90;;;;;;5058041;28;20214;-79
2021/12/18 06:11:32;;;;;;;0.40;0.30;;;8.20;99.90;;;;;;5059544;28;20208;-79
2021/12/18 06:13:58;;;;;;;0.40;0.30;;;8.20;99.90;;;;;;5058355;28;20214;-79
2021/12/18 06:16:26;;;;;;;0.40;0.30;;;8.20;99.90;;;;;;5058904;28;20203;-80
2021/12/18 06:18:53;;;;;;;0.40;0.30;;;8.20;99.90;;;;;;5057898;28;20205;-79
2021/12/18 06:21:22;;;;;;;0.40;0.30;;;8.20;99.90;;;;;;5059059;28;20690;-79
2021/12/18 06:23:51;;;;;;;0.40;0.30;;;8.20;99.90;;;;;;5058276;28;20225;-79
2021/12/18 06:26:18;;;;;;;0.40;0.30;;;8.10;99.90;;;;;;5058610;28;20289;-79
2021/12/18 06:28:45;;;;;;;0.40;0.30;;;8.10;99.90;;;;;;5057525;28;20202;-78
2021/12/18 06:31:12;;;;;;;0.40;0.30;;;8.10;99.90;;;;;;5058248;28;20572;-79
2021/12/18 06:33:40;;;;;;;0.40;0.30;;;8.10;99.90;;;;;;5059038;28;20202;-80
2021/12/18 06:36:07;;;;;;;0.40;0.30;;;8.20;99.90;;;;;;5059166;28;20596;-80
2021/12/18 06:38:34;;;;;;;0.40;0.32;;;8.20;99.90;;;;;;5058077;28;20201;-79
2021/12/18 06:41:00;;;;;;;0.40;0.32;;;8.20;99.90;;;;;;5058182;28;20197;-80
2021/12/18 06:43:27;;;;;;;0.40;0.30;;;8.20;99.90;;;;;;5057988;28;20206;-79
2021/12/18 06:45:54;;;;;;;0.40;0.30;;;8.20;99.90;;;;;;5064715;23;20308;-80
2021/12/18 06:48:21;;;;;;;0.40;0.30;;;8.20;99.90;;;;;;5053381;28;20195;-79
2021/12/18 06:50:50;;;;;;;0.40;0.30;;;8.20;99.90;;;;;;5055322;28;20221;-80
2021/12/18 06:53:17;;;;;;;0.40;0.30;;;8.30;99.90;;;;;;5056425;28;20559;-79
2021/12/18 06:55:44;;;;;;;0.50;0.30;;;8.20;99.90;;;;;;5056225;28;20225;-78
2021/12/18 06:58:11;;;;;;;0.40;0.40;;;8.30;99.90;;;;;;5056713;28;20198;-80
2021/12/18 07:00:38;;;;;;;0.40;0.30;;;8.30;99.90;;;;;;5056231;28;20200;-81
2021/12/18 07:03:04;;;;;;;0.40;0.30;;;8.30;99.90;;;;;;5056129;28;20202;-81
2021/12/18 07:05:31;;;;;;;0.40;0.30;;;8.30;99.90;;;;;;5056829;28;20599;-80
2021/12/18 07:07:59;;;;;;;0.40;0.32;;;8.30;99.90;;;;;;5056079;28;20202;-81
2021/12/18 07:10:26;;;;;;;0.40;0.30;;;8.30;99.90;;;;;;5056099;28;20296;-79
2021/12/18 07:12:53;;;;;;;0.40;0.40;;;8.30;99.90;;;;;;5056175;28;20202;-80
2021/12/18 07:15:19;;;;;;;0.40;0.40;;;8.30;99.90;;;;;;5056124;28;20229;-77
2021/12/18 07:17:46;;;;;;;0.40;0.30;;;8.20;99.90;;;;;;5056259;28;20203;-80
2021/12/18 07:20:13;;;;;;;0.40;0.30;;;8.20;99.90;;;;;;5055393;28;20201;-80
2021/12/18 07:22:40;;;;;;;0.40;0.30;;;8.20;99.90;;;;;;5056368;28;20263;-80
2021/12/18 07:25:09;;;;;;;0.40;0.32;;;8.20;99.90;;;;;;5056418;28;20225;-79
2021/12/18 07:27:36;;;;;;;0.40;0.38;;;8.20;99.90;;;;;;5056369;28;20198;-79
2021/12/18 07:30:05;;;;;;;0.40;0.30;;;8.10;99.90;;;;;;5056000;28;20210;-79
2021/12/18 07:32:32;;;;;;;0.40;0.40;;;8.10;99.90;;;;;;5055500;28;20205;-79
2021/12/18 07:34:59;;;;;;;0.40;0.30;;;8.20;99.90;;;;;;5054948;28;20222;-79
2021/12/18 07:37:26;;;;;;;0.40;0.30;;;8.20;99.90;;;;;;5056010;28;20201;-80
2021/12/18 07:39:53;;;;;;;0.40;0.40;;;8.20;99.90;;;;;;5055033;28;20205;-79
2021/12/18 07:42:21;;;;;;;0.40;0.30;;;8.20;99.90;;;;;;5055048;28;20526;-78
2021/12/18 07:44:48;;;;;;;0.40;0.30;;;8.20;99.90;;;;;;5054728;28;20212;-82
2021/12/18 07:47:15;;;;;;;0.40;0.30;;;8.20;99.90;;;;;;5054549;28;20670;-81
2021/12/18 07:49:42;;;;;;;0.40;0.30;;;8.20;99.90;;;;;;5054819;28;20210;-80
2021/12/18 07:52:09;;;;;;;0.40;0.30;;;8.30;99.90;;;;;;5055227;28;20206;-81
2021/12/18 07:54:36;;;;;;;0.40;0.30;;;8.30;99.90;;;;;;5054884;28;20303;-81
2021/12/18 07:57:03;;;;;;;0.80;0.80;;;8.30;99.90;;;;;;5055520;28;20219;-81
2021/12/18 07:59:31;;;;;;;0.40;0.40;;;8.30;99.90;;;;;;5055410;28;20209;-80
2021/12/18 08:01:58;;;;;;;0.40;0.40;;;8.30;99.90;;;;;;5055352;28;20194;-80
2021/12/18 08:04:25;;;;;;;0.40;0.32;;;8.30;99.90;;;;;;5055567;28;20576;-81
2021/12/18 08:06:51;;;;;;;0.40;0.30;;;8.30;99.90;;;;;;5054648;28;20226;-81
2021/12/18 08:09:18;;;;;;;0.40;0.38;;;8.30;99.90;;;;;;5055103;28;20202;-81
2021/12/18 08:11:45;;;;;;;0.40;0.30;;;8.30;99.90;;;;;;5055466;28;20572;-81
2021/12/18 08:14:12;;;;;;;0.40;0.30;;;8.20;99.90;;;;;;5055360;28;20198;-80
2021/12/18 08:16:40;;;;;;;0.40;0.30;;;8.30;99.90;;;;;;5054955;28;20237;-81
2021/12/18 08:19:07;;;;;;;0.40;0.32;;;8.30;99.90;;;;;;5054325;28;20198;-79
2021/12/18 08:21:34;;;;;;;0.40;0.30;;;8.30;99.90;;;;;;5055225;28;20549;-81
2021/12/18 08:24:00;;;;;;;0.40;0.30;;;8.30;99.90;;;;;;5054492;28;20210;-81
2021/12/18 08:26:27;;;;;;;0.40;0.32;;;8.30;99.90;;;;;;5054534;28;20213;-80
2021/12/18 08:28:54;;;;;;;0.40;0.38;;;8.30;99.90;;;;;;5054537;28;20205;-81
2021/12/18 08:31:21;;;;;;;0.40;0.30;;;8.30;99.90;;;;;;5055177;28;20225;-81
2021/12/18 08:33:49;;;;;;;0.50;0.30;;;8.30;99.90;;;;;;5058565;28;20198;-80
2021/12/18 08:36:15;;;;;;;0.40;0.40;;;8.30;99.90;;;;;;5058322;28;20225;-80
2021/12/18 08:38:42;;;;;;;1.58;1.58;;;8.20;99.90;;;;;;5057596;28;20661;-79
2021/12/18 08:41:09;;;;;;;0.85;0.85;;;8.30;99.90;;;;;;5058046;28;20228;-81
2021/12/18 08:43:36;;;;;;;0.40;0.30;;;8.30;99.90;;;;;;5057738;28;20233;-81
2021/12/18 08:46:03;;;;;;;0.40;0.30;;;8.30;99.90;;;;;;5058281;28;20225;-81
2021/12/18 08:48:30;;;;;;;0.40;0.30;;;8.30;99.90;;;;;;5058660;28;20205;-80
2021/12/18 08:50:58;;;;;;;0.40;0.30;;;8.20;99.90;;;;;;5057676;28;20211;-81
2021/12/18 08:53:25;;;;;;;0.40;0.40;;;8.20;99.90;;;;;;5058528;28;20210;-81
2021/12/18 08:55:51;;;;;;;0.40;0.30;;;8.30;99.90;;;;;;5058239;28;20234;-81
2021/12/18 08:58:19;;;;;;;0.40;0.30;;;8.30;99.90;;;;;;5058202;28;20198;-81
2021/12/18 09:00:45;;;;;;;0.40;0.35;;;8.30;99.90;;;;;;5057517;28;20233;-81
2021/12/18 09:03:12;;;;;;;36.58;3.13;;;8.30;99.90;;;;;;5057459;28;20278;-81
2021/12/18 09:05:39;;;;;;;0.40;0.30;;;8.30;99.90;;;;;;5058270;28;20229;-80
2021/12/18 09:08:07;;;;;;;0.40;0.30;;;8.30;99.90;;;;;;5057979;28;20189;-80
2021/12/18 09:10:35;;;;;;;4.90;1.52;;;8.30;99.90;;;;;;5057160;28;20209;-78
2021/12/18 09:13:02;;;;;;;2.15;2.05;;;8.30;99.90;;;;;;5057761;28;20205;-81
2021/12/18 09:15:29;;;;;;;0.40;0.30;;;8.40;99.90;;;;;;5057305;28;20222;-81
2021/12/18 09:17:56;;;;;;;0.40;0.30;;;8.30;99.90;;;;;;5057279;28;20662;-80
2021/12/18 09:20:22;;;;;;;0.40;0.30;;;8.30;99.90;;;;;;5057497;28;20193;-80
2021/12/18 09:22:49;;;;;;;0.40;0.30;;;8.30;99.90;;;;;;5057659;28;20695;-81
2021/12/18 09:25:17;;;;;;;0.40;0.30;;;8.30;99.90;;;;;;5057114;28;20595;-80
2021/12/18 09:27:44;;;;;;;0.40;0.40;;;8.30;99.90;;;;;;5057545;28;20202;-78
2021/12/18 09:30:14;;;;;;;0.40;0.30;;;8.30;99.90;;;;;;5056945;28;20211;-81
2021/12/18 09:32:41;;;;;;;0.40;0.40;;;8.30;99.90;;;;;;5057453;28;20202;-80
2021/12/18 09:35:10;;;;;;;0.40;0.30;;;8.30;99.90;;;;;;5057072;28;20221;-80
2021/12/18 09:37:37;;;;;;;0.40;0.30;;;8.40;99.90;;;;;;5057349;28;20193;-81
2021/12/18 09:40:05;;;;;;;0.40;0.30;;;8.30;99.90;;;;;;5057099;28;20205;-80
2021/12/18 09:42:33;;;;;;;0.40;0.30;;;8.30;99.90;;;;;;5056448;28;20205;-81
2021/12/18 09:45:00;;;;;;;0.40;0.30;;;8.40;99.90;;;;;;5057063;28;20847;-81
2021/12/18 09:47:27;;;;;;;0.40;0.30;;;8.40;99.90;;;;;;5057468;28;20178;-80
2021/12/18 09:49:55;;;;;;;0.40;0.30;;;8.40;99.90;;;;;;5056132;28;20568;-80
2021/12/18 09:52:22;;;;;;;0.40;0.30;;;8.40;99.90;;;;;;5056469;28;20201;-79
2021/12/18 09:54:49;;;;;;;0.40;0.30;;;8.50;99.90;;;;;;5053551;28;20197;-81
2021/12/18 09:57:16;;;;;;;0.40;0.40;;;8.50;99.90;;;;;;5021584;28;20546;-80
2021/12/18 09:59:44;;;;;;;0.40;0.30;;;8.60;99.90;;;;;;5039326;28;20284;-81
2021/12/18 10:02:11;;;;;;;0.40;0.30;;;8.60;99.90;;;;;;5036056;28;20203;-81
2021/12/18 10:04:39;;;;;;;0.40;0.30;;;8.60;99.90;;;;;;5048269;28;20568;-79
2021/12/18 10:07:16;;;;;;;0.40;0.30;;;8.70;99.90;;;;;;5056706;28;20206;-81
2021/12/18 10:09:43;;;;;;;0.40;0.30;;;8.70;99.90;;;;;;5055643;28;20197;-81
2021/12/18 10:12:18;;;;;;;0.40;0.40;;;8.70;99.90;;;;;;5055933;28;20229;-80
2021/12/18 10:14:49;;;;;;;0.40;0.30;;;8.60;99.90;;;;;;5055933;28;20198;-80
2021/12/18 10:17:26;;;;;;;0.40;0.30;;;8.60;99.90;;;;;;5056993;28;20201;-80
2021/12/18 10:19:55;;;;;;;0.40;0.30;;;8.60;99.90;;;;;;5055559;28;20195;-80
2021/12/18 10:22:22;;;;;;;0.40;0.40;;;8.60;99.90;;;;;;5056858;28;20191;-80
2021/12/18 10:25:03;;;;;;;0.40;0.30;;;8.60;99.90;;;;;;5056944;28;20206;-81
2021/12/18 10:27:30;;;;;;;0.40;0.38;;;8.70;99.90;;;;;;5056655;28;20475;-80
2021/12/18 10:30:11;;;;;;;0.40;0.40;;;8.60;99.90;;;;;;5055921;28;20198;-81
2021/12/18 10:32:38;;;;;;;0.40;0.30;;;8.70;99.90;;;;;;5056424;28;20197;-81
2021/12/18 10:35:05;;;;;;;0.40;0.30;;;8.80;99.90;;;;;;5055945;28;20213;-81
2021/12/18 10:37:34;;;;;;;0.40;0.30;;;8.80;99.90;;;;;;5057072;28;20193;-81
2021/12/18 10:40:05;;;;;;;0.40;0.32;;;8.80;99.90;;;;;;5055317;28;20213;-81
2021/12/18 10:42:34;;;;;;;0.40;0.30;;;8.80;99.90;;;;;;5056612;28;20504;-80
2021/12/18 10:45:15;;;;;;;0.40;0.38;;;8.90;99.90;;;;;;5055893;28;20246;-81
2021/12/18 10:47:56;;;;;;;0.60;0.60;;;8.90;99.90;;;;;;5056530;28;20190;-80
2021/12/18 10:50:32;;;;;;;0.40;0.40;;;8.90;99.90;;;;;;5055959;28;20218;-80
2021/12/18 10:53:03;;;;;;;0.50;0.50;;;9.00;99.90;;;;;;5055906;28;20202;-80
2021/12/18 10:55:36;;;;;;;0.40;0.30;;;8.90;99.90;;;;;;5055273;28;20303;-79
2021/12/18 10:58:05;;;;;;;0.40;0.40;;;8.90;99.90;;;;;;5055926;28;20201;-81
2021/12/18 11:00:44;;;;;;;0.40;0.40;;;8.90;99.90;;;;;;5054824;28;20197;-80
2021/12/18 11:03:23;;;;;;;0.40;0.30;;;8.90;99.90;;;;;;5056387;28;20544;-83
2021/12/18 11:06:08;;;;;;;4.93;0.80;;;8.80;99.90;;;;;;5056193;28;20222;-81
2021/12/18 11:08:38;;;;;;;0.40;0.40;;;8.80;99.90;;;;;;5055522;28;20183;-81
2021/12/18 11:13:48;;;;;;;2.38;2.28;;;8.80;99.90;;;;;;5055253;28;20167;-80
2021/12/18 11:16:17;;;;;;;0.40;0.30;;;8.80;99.90;;;;;;5055735;28;20592;-81
2021/12/18 11:18:46;;;;;;;0.40;0.38;;;8.80;99.90;;;;;;5056301;28;20220;-80
2021/12/18 11:21:13;;;;;;;0.40;0.30;;;8.80;99.90;;;;;;5055306;28;20689;-81
2021/12/18 11:23:44;;;;;;;0.40;0.30;;;8.60;99.90;;;;;;5054458;28;20207;-81
2021/12/18 11:26:13;;;;;;;0.40;0.40;;;8.70;99.90;;;;;;5055397;28;20225;-80
2021/12/18 11:28:44;;;;;;;0.40;0.30;;;8.70;99.90;;;;;;5055606;28;20217;-80
2021/12/18 11:31:13;;;;;;;0.40;0.30;;;8.80;99.90;;;;;;5055425;28;20217;-81
2021/12/18 11:33:42;;;;;;;0.40;0.35;;;8.80;99.90;;;;;;5055004;28;20679;-80
2021/12/18 11:36:09;;;;;;;0.40;0.30;;;8.80;99.90;;;;;;5055501;28;20245;-81
2021/12/18 11:38:40;;;;;;;2.13;0.98;;;8.90;99.90;;;;;;5055068;28;20195;-81
2021/12/18 11:41:13;;;;;;;0.40;0.30;;;8.80;99.90;;;;;;5055198;28;20205;-80
2021/12/18 11:43:44;;;;;;;0.40;0.30;;;8.90;99.90;;;;;;5055260;28;20922;-81
2021/12/18 11:46:30;;;;;;;0.40;0.30;;;8.90;99.90;;;;;;5055151;28;20256;-80
2021/12/18 11:49:00;;;;;;;0.40;0.40;;;8.80;99.90;;;;;;5054970;28;20233;-81
2021/12/18 11:51:27;;;;;;;0.40;0.30;;;8.90;99.90;;;;;;5055805;28;20252;-81
2021/12/18 11:53:54;;;;;;;0.40;0.30;;;8.80;99.90;;;;;;5055230;28;20202;-77
2021/12/18 11:56:21;;;;;;;4.63;1.70;;;8.90;99.90;;;;;;5055194;28;20708;-81
2021/12/18 11:58:50;;;;;;;0.40;0.40;;;8.90;99.90;;;;;;5055347;28;20197;-79
2021/12/18 12:01:21;;;;;;;0.40;0.30;;;9.00;99.90;;;;;;5055000;28;20194;-80
2021/12/18 12:03:59;;;;;;;0.40;0.30;;;9.00;99.90;;;;;;5055348;28;20302;-80
2021/12/18 12:06:30;;;;;;;0.40;0.30;;;9.10;99.90;;;;;;5056077;28;20210;-80
2021/12/18 12:09:22;;;;;;;0.40;0.30;;;9.10;99.90;;;;;;5058816;28;20288;-77
2021/12/18 12:11:55;;;;;;;0.40;0.40;;;9.10;99.90;;;;;;5059319;28;20214;-80
2021/12/18 12:14:23;;;;;;;0.40;0.30;;;9.10;99.90;;;;;;5059015;28;20201;-79
2021/12/18 12:17:11;;;;;;;0.40;0.40;;;9.10;99.90;;;;;;5059098;28;20226;-81
2021/12/18 12:19:48;;;;;;;1.15;1.08;;;9.10;99.90;;;;;;5058339;28;20575;-80
2021/12/18 12:22:36;;;;;;;0.40;0.35;;;9.00;99.90;;;;;;5058493;28;20202;-80
2021/12/18 12:25:06;;;;;;;0.40;0.30;;;9.00;99.90;;;;;;5059620;28;20219;-80
2021/12/18 12:27:35;;;;;;;0.40;0.30;;;8.90;99.90;;;;;;5058544;28;20676;-80
2021/12/18 12:30:05;;;;;;;0.95;0.95;;;8.90;99.90;;;;;;5057546;28;20301;-80
2021/12/18 12:32:32;;;;;;;0.40;0.30;;;8.80;99.90;;;;;;5059291;28;20206;-79
2021/12/18 12:35:03;;;;;;;0.40;0.40;;;8.80;99.90;;;;;;5058070;28;20694;-80
2021/12/18 12:37:38;;;;;;;0.40;0.30;;;8.70;99.90;;;;;;5058307;28;20548;-80
2021/12/18 12:40:10;;;;;;;0.40;0.30;;;8.70;99.90;;;;;;5058671;28;20189;-80
2021/12/18 12:42:38;;;;;;;0.40;0.30;;;8.70;99.90;;;;;;5059044;28;20591;-80
2021/12/18 12:45:11;;;;;;;0.40;0.30;;;8.60;99.90;;;;;;5058360;28;20229;-80
2021/12/18 12:47:39;;;;;;;0.40;0.30;;;8.60;99.90;;;;;;5063403;22;20557;-78
2021/12/18 12:50:30;;;;;;;0.40;0.32;;;8.60;99.90;;;;;;5042100;28;20552;-77
2021/12/18 12:52:59;;;;;;;0.40;0.30;;;8.60;99.90;;;;;;5056528;28;20267;-78
2021/12/18 12:55:28;;;;;;;0.40;0.40;;;8.60;99.90;;;;;;5055935;28;20666;-78
2021/12/18 12:57:57;;;;;;;0.40;0.30;;;8.60;99.90;;;;;;5056322;28;20245;-78
2021/12/18 13:00:44;;;;;;;0.40;0.30;;;8.50;99.90;;;;;;5055461;28;20201;-79
2021/12/18 13:03:33;;;;;;;0.40;0.30;;;8.40;99.90;;;;;;5056217;28;20183;-78
2021/12/18 13:06:12;;;;;;;0.40;0.30;;;8.40;99.90;;;;;;5052044;28;20206;-78
2021/12/18 13:08:41;;;;;;;0.40;0.30;;;8.40;99.90;;;;;;5056158;28;20189;-78
2021/12/18 13:11:14;;;;;;;0.40;0.40;;;8.40;99.90;;;;;;5055283;28;20618;-77
2021/12/18 13:13:41;;;;;;;0.40;0.30;;;8.30;99.90;;;;;;5056434;28;20576;-77
2021/12/18 13:16:11;;;;;;;0.40;0.30;;;8.20;99.90;;;;;;5055907;28;20202;-78
2021/12/18 13:18:40;;;;;;;0.40;0.30;;;8.20;99.90;;;;;;5054818;28;20194;-78
2021/12/18 13:21:12;;;;;;;0.40;0.30;;;8.20;99.90;;;;;;5055165;28;20225;-77
2021/12/18 13:23:41;;;;;;;0.40;0.30;;;8.20;99.90;;;;;;5056254;28;20209;-78
2021/12/18 13:26:10;;;;;;;0.40;0.30;;;8.20;99.90;;;;;;5062066;28;20198;-78
2021/12/18 13:28:45;;;;;;;0.40;0.30;;;8.20;99.90;;;;;;5064025;28;20210;-78
2021/12/18 13:31:12;;;;;;;0.40;0.40;;;8.20;99.90;;;;;;5063566;28;20189;-78
2021/12/18 13:33:39;;;;;;;0.40;0.30;;;8.00;99.90;;;;;;5064889;28;20201;-79
2021/12/18 13:36:07;;;;;;;0.40;0.30;;;8.00;99.90;;;;;;5065247;28;20232;-78
2021/12/18 13:38:36;;;;;;;0.73;0.70;;;7.90;99.90;;;;;;5065151;28;20191;-78
2021/12/18 13:41:07;;;;;;;0.40;0.30;;;7.90;99.90;;;;;;5064885;28;20652;-78